createdAt,value
2023-02-28T00:16:23.984Z,-5.10
2023-02-28T00:21:21.348Z,-5.10
2023-02-28T00:48:38.885Z,-5.20
2023-02-28T01:08:28.160Z,-5.40
2023-02-28T01:15:55.833Z,-5.40
2023-02-28T01:23:22.962Z,-5.40
2023-02-28T01:25:51.814Z,-5.60
2023-02-28T01:30:52.012Z,-5.60
2023-02-28T01:38:22.437Z,-5.50
2023-02-28T01:43:25.400Z,-5.60
2023-02-28T01:45:55.612Z,-5.60
2023-02-28T01:48:31.950Z,-5.60
2023-02-28T01:51:06.790Z,-4.90
2023-02-28T01:53:38.768Z,-5.50
2023-02-28T01:56:10.112Z,-5.60
2023-02-28T01:58:38.238Z,-5.60
2023-02-28T02:03:37.115Z,-5.60
2023-02-28T02:08:32.604Z,-5.00
2023-02-28T02:11:02.438Z,-5.40
2023-02-28T02:13:57.388Z,-5.70
2023-02-28T02:16:54.989Z,-5.70
2023-02-28T02:19:31.352Z,-5.80
2023-02-28T02:24:59.141Z,-5.50
2023-02-28T02:27:39.617Z,-5.80
2023-02-28T02:30:34.236Z,-5.60
2023-02-28T02:33:20.138Z,-5.90
2023-02-28T02:36:05.692Z,-5.90
2023-02-28T02:38:42.616Z,-6.10
2023-02-28T02:41:22.332Z,-5.60
2023-02-28T02:44:06.029Z,-5.80
2023-02-28T02:46:35.338Z,-5.90
2023-02-28T02:49:08.636Z,-6.30
2023-02-28T02:51:37.872Z,-6.00
2023-02-28T02:54:18.519Z,-6.00
2023-02-28T02:56:51.050Z,-6.10
2023-02-28T02:59:23.002Z,-5.70
2023-02-28T03:01:54.551Z,-6.00
2023-02-28T03:04:24.607Z,-6.00
2023-02-28T03:06:56.156Z,-6.50
2023-02-28T03:09:25.667Z,-5.50
2023-02-28T03:11:57.433Z,-6.10
2023-02-28T03:14:49.426Z,-6.10
2023-02-28T03:17:32.492Z,-6.20
2023-02-28T03:20:33.020Z,-6.20
2023-02-28T03:23:16.233Z,-5.70
2023-02-28T03:25:57.948Z,-5.90
2023-02-28T03:28:33.242Z,-6.30
2023-02-28T03:31:16.419Z,-6.00
2023-02-28T03:33:55.793Z,-6.60
2023-02-28T03:36:45.059Z,-6.20
2023-02-28T03:39:21.072Z,-5.60
2023-02-28T03:42:21.056Z,-6.50
2023-02-28T03:45:13.156Z,-6.30
2023-02-28T03:47:50.609Z,-6.10
2023-02-28T03:50:28.921Z,-6.10
2023-02-28T03:53:05.891Z,-6.30
2023-02-28T03:55:40.743Z,-6.00
2023-02-28T03:58:23.756Z,-6.30
2023-02-28T04:00:58.258Z,-6.30
2023-02-28T04:03:26.125Z,-4.60
2023-02-28T04:05:58.223Z,-6.00
2023-02-28T04:08:26.031Z,-6.40
2023-02-28T04:11:07.890Z,-6.50
2023-02-28T04:13:35.607Z,-6.40
2023-02-28T04:16:02.983Z,-6.50
2023-02-28T04:18:30.672Z,-6.40
2023-02-28T04:21:01.604Z,-6.50
2023-02-28T04:23:29.318Z,-6.60
2023-02-28T04:25:57.040Z,-6.50
2023-02-28T04:28:24.985Z,-6.50
2023-02-28T04:31:00.994Z,-6.60
2023-02-28T04:36:02.038Z,-6.40
2023-02-28T04:38:31.720Z,-6.20
2023-02-28T04:41:00.625Z,-6.60
2023-02-28T04:43:29.439Z,-6.50
2023-02-28T04:45:58.213Z,-6.50
2023-02-28T04:48:28.432Z,-6.50
2023-02-28T04:50:56.069Z,-6.70
2023-02-28T04:53:23.705Z,-6.70
2023-02-28T04:58:19.204Z,-6.50
2023-02-28T05:00:46.553Z,-6.60
2023-02-28T05:03:14.279Z,-6.40
2023-02-28T05:05:41.870Z,-6.60
2023-02-28T05:08:10.970Z,-6.70
2023-02-28T05:13:06.454Z,-6.30
2023-02-28T05:15:35.659Z,-6.70
2023-02-28T05:18:03.531Z,-6.30
2023-02-28T05:20:31.045Z,-6.70
2023-02-28T05:23:00.479Z,-6.10
2023-02-28T05:25:28.184Z,-6.60
2023-02-28T05:27:55.752Z,-6.30
2023-02-28T05:30:23.257Z,-6.50
2023-02-28T05:32:53.803Z,-6.70
2023-02-28T05:35:21.385Z,-6.80
2023-02-28T05:37:49.267Z,-6.30
2023-02-28T05:40:17.808Z,-6.80
2023-02-28T05:42:45.604Z,-6.70
2023-02-28T05:47:43.668Z,-6.60
2023-02-28T05:52:39.473Z,-6.70
2023-02-28T05:57:35.609Z,-6.60
2023-02-28T06:00:04.563Z,-6.60
2023-02-28T06:02:42.202Z,-6.70
2023-02-28T06:05:18.853Z,-6.00
2023-02-28T06:07:46.878Z,-6.50
2023-02-28T06:10:15.210Z,-6.50
2023-02-28T06:12:43.631Z,-6.60
2023-02-28T06:15:15.783Z,-6.10
2023-02-28T06:17:44.926Z,-5.90
2023-02-28T06:20:16.899Z,-6.20
2023-02-28T06:22:45.497Z,-6.20
2023-02-28T06:25:13.202Z,-6.00
2023-02-28T06:27:40.943Z,-6.30
2023-02-28T06:30:09.288Z,-6.10
2023-02-28T06:32:37.364Z,-6.00
2023-02-28T06:35:05.078Z,-4.70
2023-02-28T06:37:33.887Z,-5.60
2023-02-28T06:40:01.275Z,-5.70
2023-02-28T06:44:57.760Z,-5.40
2023-02-28T06:47:25.272Z,-5.10
2023-02-28T06:49:52.459Z,-5.20
2023-02-28T06:54:47.633Z,-4.60
2023-02-28T06:57:15.168Z,-4.80
2023-02-28T07:02:10.237Z,-4.80
2023-02-28T07:04:37.514Z,-4.70
2023-02-28T07:07:05.010Z,-4.30
2023-02-28T07:09:32.187Z,-2.10
2023-02-28T07:12:02.737Z,-4.60
2023-02-28T07:14:30.001Z,-4.50
2023-02-28T07:16:57.469Z,-4.40
2023-02-28T07:19:24.587Z,-4.10
2023-02-28T07:21:52.069Z,-4.00
2023-02-28T07:24:19.433Z,-4.20
2023-02-28T07:26:47.287Z,-4.10
2023-02-28T07:29:14.441Z,-4.00
2023-02-28T07:31:41.862Z,-3.80
2023-02-28T07:34:09.305Z,-3.80
2023-02-28T07:36:36.960Z,-3.70
2023-02-28T07:39:05.320Z,-3.50
2023-02-28T07:41:35.082Z,-3.60
2023-02-28T07:44:02.642Z,-3.60
2023-02-28T07:46:36.409Z,-3.40
2023-02-28T07:49:04.259Z,-3.40
2023-02-28T07:51:31.994Z,-3.30
2023-02-28T07:53:59.363Z,-3.20
2023-02-28T07:56:27.116Z,-3.50
2023-02-28T08:01:22.898Z,-2.90
2023-02-28T08:03:50.368Z,-2.70
2023-02-28T08:06:21.107Z,-2.50
2023-02-28T08:08:48.430Z,-2.50
2023-02-28T08:11:18.159Z,-2.30
2023-02-28T08:13:46.597Z,-2.30
2023-02-28T08:16:23.215Z,0.20
2023-02-28T08:18:52.712Z,-2.20
2023-02-28T08:21:20.792Z,-2.00
2023-02-28T08:23:49.957Z,-0.80
2023-02-28T08:26:21.008Z,-1.80
2023-02-28T08:28:48.794Z,-1.70
2023-02-28T08:31:17.722Z,-1.20
2023-02-28T08:33:45.735Z,-1.30
2023-02-28T08:36:13.571Z,-1.10
2023-02-28T08:38:41.159Z,-0.10
2023-02-28T08:41:10.866Z,0.40
2023-02-28T08:43:39.381Z,0.30
2023-02-28T08:46:07.601Z,0.50
2023-02-28T08:48:38.928Z,1.10
2023-02-28T08:51:08.876Z,1.80
2023-02-28T08:53:40.814Z,2.60
2023-02-28T08:56:13.973Z,3.10
2023-02-28T08:58:41.676Z,3.20
2023-02-28T09:01:14.721Z,5.50
2023-02-28T09:03:43.286Z,4.10
2023-02-28T09:06:12.612Z,4.40
2023-02-28T09:08:41.128Z,4.70
2023-02-28T09:11:10.078Z,5.60
2023-02-28T09:13:38.175Z,6.20
2023-02-28T09:16:08.066Z,6.80
2023-02-28T09:18:38.574Z,7.80
2023-02-28T09:21:07.611Z,7.90
2023-02-28T09:23:35.747Z,8.00
2023-02-28T09:26:03.046Z,8.10
2023-02-28T09:28:30.793Z,8.80
2023-02-28T09:30:59.949Z,9.40
2023-02-28T09:33:27.747Z,8.80
2023-02-28T09:36:01.873Z,8.70
2023-02-28T09:38:30.096Z,8.20
2023-02-28T09:41:01.567Z,8.60
2023-02-28T09:43:38.798Z,8.40
2023-02-28T09:46:18.093Z,9.00
2023-02-28T09:48:48.074Z,9.60
2023-02-28T09:51:37.130Z,9.50
2023-02-28T10:07:51.155Z,10.90
2023-02-28T10:10:45.056Z,11.10
2023-02-28T10:13:35.769Z,9.90
2023-02-28T10:16:15.786Z,9.10
2023-02-28T10:18:58.655Z,8.90
2023-02-28T10:21:44.531Z,9.10
2023-02-28T10:24:18.310Z,9.20
2023-02-28T10:26:47.217Z,9.40
2023-02-28T10:29:15.261Z,9.50
2023-02-28T10:31:43.626Z,8.80
2023-02-28T10:34:14.344Z,8.70
2023-02-28T10:36:44.901Z,9.10
2023-02-28T10:39:47.659Z,9.40
2023-02-28T10:42:29.945Z,8.90
2023-02-28T10:45:17.196Z,9.50
2023-02-28T10:48:01.946Z,8.90
2023-02-28T10:50:32.558Z,9.30
2023-02-28T10:53:36.157Z,10.30
2023-02-28T10:56:18.250Z,10.50
2023-02-28T10:58:54.789Z,11.10
2023-02-28T11:01:26.193Z,11.10
2023-02-28T11:03:54.293Z,11.70
2023-02-28T11:09:00.352Z,11.40
2023-02-28T11:11:32.744Z,10.70
2023-02-28T11:14:17.428Z,10.80
2023-02-28T11:19:27.549Z,13.80
2023-02-28T11:22:02.887Z,12.00
2023-02-28T11:24:33.653Z,12.60
2023-02-28T11:27:01.239Z,12.60
2023-02-28T11:29:34.441Z,13.20
2023-02-28T11:32:06.952Z,13.70
2023-02-28T11:37:06.532Z,13.30
2023-02-28T11:39:34.867Z,13.20
2023-02-28T11:42:08.271Z,14.10
2023-02-28T11:44:59.605Z,14.40
2023-02-28T11:47:58.744Z,13.90
2023-02-28T11:50:50.963Z,13.80
2023-02-28T11:53:33.410Z,14.00
2023-02-28T11:56:12.542Z,14.00
2023-02-28T12:01:25.686Z,13.60
2023-02-28T12:04:31.436Z,13.30
2023-02-28T12:07:10.612Z,15.40
2023-02-28T12:09:45.264Z,15.60
2023-02-28T12:12:35.914Z,15.40
2023-02-28T12:15:09.542Z,15.20
2023-02-28T12:17:56.774Z,15.20
2023-02-28T12:20:38.249Z,15.90
2023-02-28T12:23:27.360Z,15.80
2023-02-28T12:26:13.219Z,15.70
2023-02-28T12:28:49.088Z,15.30
2023-02-28T12:31:29.178Z,15.30
2023-02-28T12:34:26.445Z,16.10
2023-02-28T12:36:57.074Z,16.50
2023-02-28T12:39:36.518Z,17.80
2023-02-28T12:42:15.509Z,16.80
2023-02-28T12:44:50.773Z,15.50
2023-02-28T12:47:19.916Z,16.00
2023-02-28T12:49:53.386Z,15.40
2023-02-28T12:52:45.953Z,16.20
2023-02-28T12:55:21.590Z,16.40
2023-02-28T12:57:48.971Z,16.20
2023-02-28T13:00:24.147Z,16.00
2023-02-28T13:03:16.907Z,16.20
2023-02-28T13:05:59.647Z,16.30
2023-02-28T13:08:54.561Z,16.50
2023-02-28T13:11:39.483Z,16.10
2023-02-28T13:14:26.181Z,16.70
2023-02-28T13:17:13.585Z,17.30
2023-02-28T13:19:56.226Z,17.20
2023-02-28T13:22:27.658Z,15.90
2023-02-28T13:24:57.477Z,15.90
2023-02-28T13:27:42.012Z,15.90
2023-02-28T13:30:46.985Z,16.10
2023-02-28T13:33:33.166Z,17.40
2023-02-28T13:36:20.739Z,16.90
2023-02-28T13:38:49.126Z,17.20
2023-02-28T13:41:35.794Z,16.30
2023-02-28T13:44:16.723Z,16.50
2023-02-28T13:46:50.517Z,17.30
2023-02-28T13:49:33.176Z,17.30
2023-02-28T13:52:10.336Z,16.20
2023-02-28T13:55:06.338Z,16.60
2023-02-28T13:57:52.633Z,17.30
2023-02-28T14:00:36.746Z,17.70
2023-02-28T14:03:30.215Z,16.40
2023-02-28T14:06:20.738Z,16.80
2023-02-28T14:09:05.541Z,16.30
2023-02-28T14:11:40.149Z,16.30
2023-02-28T14:14:10.082Z,16.30
2023-02-28T14:16:52.202Z,15.70
2023-02-28T14:19:28.149Z,15.30
2023-02-28T14:22:24.390Z,15.00
2023-02-28T14:25:11.996Z,14.60
2023-02-28T14:28:17.075Z,14.60
2023-02-28T14:31:01.388Z,14.40
2023-02-28T14:33:35.108Z,14.70
2023-02-28T14:36:02.773Z,14.70
2023-02-28T14:38:44.031Z,13.60
2023-02-28T14:41:22.706Z,13.50
2023-02-28T14:43:57.110Z,12.40
2023-02-28T14:46:29.029Z,11.90
2023-02-28T14:54:00.260Z,10.60
2023-02-28T14:56:39.717Z,10.10
2023-02-28T14:59:26.727Z,9.50
2023-02-28T15:02:17.515Z,8.70
2023-02-28T15:05:01.470Z,8.10
2023-02-28T15:07:30.516Z,8.10
2023-02-28T15:10:13.658Z,7.80
2023-02-28T15:12:42.698Z,7.50
2023-02-28T15:15:18.673Z,7.50
2023-02-28T15:17:53.782Z,7.20
2023-02-28T15:20:22.788Z,7.00
2023-02-28T15:22:54.164Z,6.90
2023-02-28T15:25:23.600Z,6.70
2023-02-28T15:27:55.991Z,6.50
2023-02-28T15:30:32.491Z,6.30
2023-02-28T15:33:26.142Z,6.10
2023-02-28T15:36:17.104Z,6.00
2023-02-28T15:38:45.392Z,5.70
2023-02-28T15:41:25.920Z,5.60
2023-02-28T15:44:18.652Z,5.50
2023-02-28T15:47:02.720Z,5.40
2023-02-28T15:49:54.369Z,5.30
2023-02-28T15:52:43.676Z,5.10
2023-02-28T15:55:23.993Z,4.90
2023-02-28T15:58:01.155Z,4.80
2023-02-28T16:00:35.266Z,4.80
2023-02-28T16:03:27.590Z,4.70
2023-02-28T16:06:17.629Z,4.60
2023-02-28T16:08:46.769Z,4.40
2023-02-28T16:11:14.790Z,4.30
2023-02-28T16:13:42.949Z,4.20
2023-02-28T16:16:20.908Z,4.10
2023-02-28T16:18:49.425Z,3.90
2023-02-28T16:21:17.437Z,3.80
2023-02-28T16:23:45.966Z,3.60
2023-02-28T16:26:28.699Z,3.30
2023-02-28T16:33:57.992Z,2.20
2023-02-28T16:38:56.422Z,2.30
2023-02-28T16:41:27.363Z,1.70
2023-02-28T16:44:01.374Z,1.90
2023-02-28T16:46:34.575Z,1.20
2023-02-28T16:59:02.707Z,0.90
2023-02-28T17:06:30.429Z,0.60
2023-02-28T17:09:00.793Z,0.50
2023-02-28T17:16:34.784Z,0.00
2023-02-28T17:19:06.099Z,0.10
2023-02-28T17:21:35.959Z,0.00
2023-02-28T17:24:04.523Z,-0.30
2023-02-28T17:26:33.213Z,-0.40
2023-02-28T17:29:02.104Z,-0.70
2023-02-28T17:34:01.444Z,0.20
2023-02-28T17:46:26.144Z,-0.70
2023-02-28T17:48:55.619Z,-0.80
2023-02-28T17:51:25.805Z,-0.80
2023-02-28T17:56:25.129Z,-1.00
2023-02-28T17:58:55.953Z,-1.00
2023-02-28T18:01:26.707Z,-1.00
2023-02-28T18:03:57.008Z,-0.90
2023-02-28T18:06:28.884Z,-1.00
2023-02-28T18:13:56.941Z,-1.10
2023-02-28T18:16:24.692Z,-1.30
2023-02-28T18:21:23.674Z,-1.20
2023-02-28T18:23:54.382Z,-1.20
2023-02-28T18:31:21.078Z,-1.30
2023-02-28T18:33:51.243Z,-1.30
2023-02-28T18:36:23.043Z,-1.00
2023-02-28T18:41:22.351Z,-1.30
2023-02-28T18:46:21.453Z,-1.40
2023-02-28T18:51:21.001Z,-1.40
2023-02-28T18:56:19.853Z,-1.40
2023-02-28T18:58:48.206Z,-1.20
2023-02-28T19:01:19.397Z,-1.20
2023-02-28T19:11:17.080Z,-1.20
2023-02-28T19:13:46.711Z,-1.30
2023-02-28T19:16:19.731Z,-1.30
2023-02-28T19:21:17.526Z,-1.00
2023-02-28T19:23:45.937Z,-1.10
2023-02-28T19:26:21.744Z,-1.40
2023-02-28T19:28:51.423Z,-1.90
2023-02-28T19:31:24.260Z,-1.50
2023-02-28T19:33:53.240Z,-1.60
2023-02-28T19:36:22.276Z,-1.70
2023-02-28T19:38:51.319Z,-1.30
2023-02-28T19:41:20.215Z,-1.70
2023-02-28T19:43:49.294Z,-1.70
2023-02-28T19:48:49.134Z,-1.90
2023-02-28T19:53:47.494Z,-1.90
2023-02-28T19:56:16.386Z,-2.00
2023-02-28T19:58:45.438Z,-1.80
2023-02-28T20:01:16.674Z,-2.10
2023-02-28T20:03:51.993Z,-2.20
2023-02-28T20:08:54.932Z,-2.10
2023-02-28T20:11:22.915Z,-2.30
2023-02-28T20:13:54.065Z,-2.30
2023-02-28T20:16:21.744Z,-0.80
2023-02-28T20:18:51.685Z,-1.90
2023-02-28T20:21:20.642Z,-2.30
2023-02-28T20:23:49.254Z,-2.60
2023-02-28T20:28:49.011Z,-1.90
2023-02-28T20:31:19.880Z,-2.00
2023-02-28T20:33:50.778Z,-2.40
2023-02-28T20:36:24.582Z,-2.30
2023-02-28T20:38:53.349Z,-2.40
2023-02-28T20:41:21.714Z,-2.80
2023-02-28T20:43:58.425Z,-2.50
2023-02-28T20:46:27.371Z,-2.50
2023-02-28T20:53:54.752Z,-2.30
2023-02-28T20:56:26.111Z,-2.50
2023-02-28T20:58:58.259Z,-2.10
2023-02-28T21:01:27.560Z,-2.60
2023-02-28T21:04:00.658Z,-3.10
2023-02-28T21:06:31.442Z,-2.70
2023-02-28T21:08:59.808Z,-2.20
2023-02-28T21:11:32.828Z,-2.70
2023-02-28T21:14:06.480Z,-3.00
2023-02-28T21:19:07.196Z,-2.70
2023-02-28T21:21:43.983Z,-3.10
2023-02-28T21:24:13.108Z,-3.00
2023-02-28T21:26:43.046Z,-3.30
2023-02-28T21:29:12.892Z,-3.00
2023-02-28T21:34:11.767Z,-3.00
2023-02-28T21:36:43.364Z,-3.30
2023-02-28T21:39:16.171Z,-3.10
2023-02-28T21:44:19.678Z,-3.20
2023-02-28T21:46:49.798Z,-3.00
2023-02-28T21:51:45.978Z,-2.90
2023-02-28T21:54:14.389Z,-3.10
2023-02-28T21:59:10.901Z,-2.60
2023-02-28T22:01:41.416Z,-2.80
2023-02-28T22:04:11.585Z,-2.80
2023-02-28T22:06:41.500Z,-2.90
2023-02-28T22:09:10.853Z,-3.00
2023-02-28T22:11:39.514Z,-2.80
2023-02-28T22:14:12.317Z,-3.10
2023-02-28T22:19:25.033Z,-2.70
2023-02-28T22:24:24.854Z,-2.70
2023-02-28T22:26:54.454Z,-3.00
2023-02-28T22:31:51.767Z,-2.90
2023-02-28T23:01:33.654Z,-3.30
2023-02-28T23:06:35.028Z,-3.30
2023-02-28T23:09:06.930Z,-3.30
2023-02-28T23:11:38.671Z,-3.30
2023-02-28T23:14:07.285Z,-3.10
2023-02-28T23:16:39.254Z,-3.10
2023-02-28T23:19:10.222Z,-3.10
2023-02-28T23:21:38.836Z,-3.10
2023-02-28T23:24:12.025Z,-3.20
2023-02-28T23:26:42.087Z,-3.10
2023-02-28T23:34:07.656Z,-3.00
2023-02-28T23:56:25.471Z,-3.30
2023-02-28T23:58:55.564Z,-3.80
